sensor_id;sensor_type;location;lat;lon;timestamp;P1;durP1;ratioP1;P2;durP2;ratioP2
21675;SDS011;10999;51.332;9.458;2023-02-03T00:02:21;23.00;;;8.55;;
21675;SDS011;10999;51.332;9.458;2023-02-03T00:04:48;22.02;;;9.23;;
21675;SDS011;10999;51.332;9.458;2023-02-03T00:07:14;24.35;;;9.43;;
21675;SDS011;10999;51.332;9.458;2023-02-03T00:09:41;21.52;;;9.20;;
21675;SDS011;10999;51.332;9.458;2023-02-03T00:12:08;19.00;;;9.02;;
21675;SDS011;10999;51.332;9.458;2023-02-03T00:14:35;21.40;;;7.82;;
21675;SDS011;10999;51.332;9.458;2023-02-03T00:17:03;19.52;;;8.52;;
21675;SDS011;10999;51.332;9.458;2023-02-03T00:19:30;23.80;;;8.95;;
21675;SDS011;10999;51.332;9.458;2023-02-03T00:21:57;21.80;;;8.85;;
21675;SDS011;10999;51.332;9.458;2023-02-03T00:24:24;20.92;;;7.97;;
21675;SDS011;10999;51.332;9.458;2023-02-03T00:26:50;20.02;;;8.52;;
21675;SDS011;10999;51.332;9.458;2023-02-03T00:29:17;19.90;;;7.35;;
21675;SDS011;10999;51.332;9.458;2023-02-03T00:31:46;17.60;;;7.50;;
21675;SDS011;10999;51.332;9.458;2023-02-03T00:34:13;20.75;;;7.50;;
21675;SDS011;10999;51.332;9.458;2023-02-03T00:36:40;14.75;;;5.82;;
21675;SDS011;10999;51.332;9.458;2023-02-03T00:39:08;14.13;;;5.57;;
21675;SDS011;10999;51.332;9.458;2023-02-03T00:41:35;13.27;;;5.15;;
21675;SDS011;10999;51.332;9.458;2023-02-03T00:44:01;15.15;;;5.65;;
21675;SDS011;10999;51.332;9.458;2023-02-03T00:46:28;13.35;;;5.38;;
21675;SDS011;10999;51.332;9.458;2023-02-03T00:48:55;12.88;;;4.57;;
21675;SDS011;10999;51.332;9.458;2023-02-03T00:51:21;13.18;;;5.38;;
21675;SDS011;10999;51.332;9.458;2023-02-03T00:53:48;15.35;;;5.25;;
21675;SDS011;10999;51.332;9.458;2023-02-03T00:56:15;12.63;;;4.85;;
21675;SDS011;10999;51.332;9.458;2023-02-03T00:58:41;15.75;;;5.03;;
21675;SDS011;10999;51.332;9.458;2023-02-03T01:01:08;14.82;;;5.05;;
21675;SDS011;10999;51.332;9.458;2023-02-03T01:03:35;16.38;;;6.50;;
21675;SDS011;10999;51.332;9.458;2023-02-03T01:06:13;16.23;;;6.13;;
21675;SDS011;10999;51.332;9.458;2023-02-03T01:08:42;13.80;;;5.63;;
21675;SDS011;10999;51.332;9.458;2023-02-03T01:11:10;12.45;;;5.68;;
21675;SDS011;10999;51.332;9.458;2023-02-03T01:13:39;11.57;;;4.82;;
21675;SDS011;10999;51.332;9.458;2023-02-03T01:16:06;14.02;;;5.13;;
21675;SDS011;10999;51.332;9.458;2023-02-03T01:18:37;11.57;;;4.57;;
21675;SDS011;10999;51.332;9.458;2023-02-03T01:21:05;14.07;;;5.05;;
21675;SDS011;10999;51.332;9.458;2023-02-03T01:23:37;13.20;;;5.40;;
21675;SDS011;10999;51.332;9.458;2023-02-03T01:26:04;11.15;;;4.68;;
21675;SDS011;10999;51.332;9.458;2023-02-03T01:28:33;12.25;;;5.32;;
21675;SDS011;10999;51.332;9.458;2023-02-03T01:31:13;9.57;;;4.50;;
21675;SDS011;10999;51.332;9.458;2023-02-03T01:33:42;11.90;;;4.70;;
21675;SDS011;10999;51.332;9.458;2023-02-03T01:36:11;12.65;;;5.22;;
21675;SDS011;10999;51.332;9.458;2023-02-03T01:38:39;13.07;;;5.22;;
21675;SDS011;10999;51.332;9.458;2023-02-03T01:41:06;14.32;;;5.25;;
21675;SDS011;10999;51.332;9.458;2023-02-03T01:43:37;14.80;;;5.30;;
21675;SDS011;10999;51.332;9.458;2023-02-03T01:49:12;13.25;;;5.50;;
21675;SDS011;10999;51.332;9.458;2023-02-03T01:51:45;14.10;;;5.53;;
21675;SDS011;10999;51.332;9.458;2023-02-03T01:54:16;13.75;;;5.43;;
21675;SDS011;10999;51.332;9.458;2023-02-03T01:56:50;14.50;;;6.15;;
21675;SDS011;10999;51.332;9.458;2023-02-03T01:59:22;18.20;;;6.88;;
21675;SDS011;10999;51.332;9.458;2023-02-03T02:01:50;14.82;;;5.88;;
21675;SDS011;10999;51.332;9.458;2023-02-03T02:04:18;12.55;;;5.05;;
21675;SDS011;10999;51.332;9.458;2023-02-03T02:06:47;17.92;;;6.90;;
21675;SDS011;10999;51.332;9.458;2023-02-03T02:09:14;13.27;;;5.82;;
21675;SDS011;10999;51.332;9.458;2023-02-03T02:11:41;16.05;;;6.18;;
21675;SDS011;10999;51.332;9.458;2023-02-03T02:14:08;14.75;;;6.28;;
21675;SDS011;10999;51.332;9.458;2023-02-03T02:16:45;17.65;;;7.15;;
21675;SDS011;10999;51.332;9.458;2023-02-03T02:19:37;11.82;;;5.25;;
21675;SDS011;10999;51.332;9.458;2023-02-03T02:22:29;13.30;;;6.30;;
21675;SDS011;10999;51.332;9.458;2023-02-03T02:28:10;13.38;;;5.50;;
21675;SDS011;10999;51.332;9.458;2023-02-03T02:33:36;15.40;;;6.15;;
21675;SDS011;10999;51.332;9.458;2023-02-03T02:36:27;14.63;;;5.80;;
21675;SDS011;10999;51.332;9.458;2023-02-03T02:39:18;14.02;;;5.60;;
21675;SDS011;10999;51.332;9.458;2023-02-03T02:44:58;16.27;;;6.97;;
21675;SDS011;10999;51.332;9.458;2023-02-03T02:47:33;16.88;;;6.15;;
21675;SDS011;10999;51.332;9.458;2023-02-03T02:50:08;16.58;;;6.40;;
21675;SDS011;10999;51.332;9.458;2023-02-03T02:52:43;21.13;;;6.57;;
21675;SDS011;10999;51.332;9.458;2023-02-03T02:55:16;17.13;;;6.70;;
21675;SDS011;10999;51.332;9.458;2023-02-03T02:57:50;16.02;;;7.28;;
21675;SDS011;10999;51.332;9.458;2023-02-03T03:00:21;15.18;;;6.63;;
21675;SDS011;10999;51.332;9.458;2023-02-03T03:02:48;18.55;;;6.82;;
21675;SDS011;10999;51.332;9.458;2023-02-03T03:05:15;13.35;;;6.18;;
21675;SDS011;10999;51.332;9.458;2023-02-03T03:07:45;15.80;;;6.03;;
21675;SDS011;10999;51.332;9.458;2023-02-03T03:10:17;13.07;;;5.53;;
21675;SDS011;10999;51.332;9.458;2023-02-03T03:12:52;12.95;;;6.43;;
21675;SDS011;10999;51.332;9.458;2023-02-03T03:15:23;14.65;;;6.55;;
21675;SDS011;10999;51.332;9.458;2023-02-03T03:17:53;13.63;;;5.88;;
21675;SDS011;10999;51.332;9.458;2023-02-03T03:20:23;12.98;;;5.07;;
21675;SDS011;10999;51.332;9.458;2023-02-03T03:23:00;13.27;;;5.20;;
21675;SDS011;10999;51.332;9.458;2023-02-03T03:25:34;13.13;;;4.40;;
21675;SDS011;10999;51.332;9.458;2023-02-03T03:28:09;12.15;;;5.35;;
21675;SDS011;10999;51.332;9.458;2023-02-03T03:30:41;9.05;;;4.05;;
21675;SDS011;10999;51.332;9.458;2023-02-03T03:33:08;9.90;;;4.30;;
21675;SDS011;10999;51.332;9.458;2023-02-03T03:35:37;9.38;;;3.83;;
21675;SDS011;10999;51.332;9.458;2023-02-03T03:38:33;8.73;;;3.95;;
21675;SDS011;10999;51.332;9.458;2023-02-03T03:41:14;9.45;;;4.07;;
21675;SDS011;10999;51.332;9.458;2023-02-03T03:43:47;9.93;;;4.38;;
21675;SDS011;10999;51.332;9.458;2023-02-03T03:46:18;9.77;;;4.07;;
21675;SDS011;10999;51.332;9.458;2023-02-03T03:48:55;11.90;;;3.90;;
21675;SDS011;10999;51.332;9.458;2023-02-03T03:54:05;10.70;;;3.95;;
21675;SDS011;10999;51.332;9.458;2023-02-03T03:56:39;10.63;;;3.70;;
21675;SDS011;10999;51.332;9.458;2023-02-03T03:59:10;10.52;;;3.83;;
21675;SDS011;10999;51.332;9.458;2023-02-03T04:01:39;8.23;;;3.72;;
21675;SDS011;10999;51.332;9.458;2023-02-03T04:04:08;10.18;;;3.33;;
21675;SDS011;10999;51.332;9.458;2023-02-03T04:06:37;9.15;;;3.58;;
21675;SDS011;10999;51.332;9.458;2023-02-03T04:09:04;10.50;;;3.50;;
21675;SDS011;10999;51.332;9.458;2023-02-03T04:11:31;14.00;;;4.13;;
21675;SDS011;10999;51.332;9.458;2023-02-03T04:16:43;10.02;;;4.47;;
21675;SDS011;10999;51.332;9.458;2023-02-03T04:19:10;11.27;;;4.03;;
21675;SDS011;10999;51.332;9.458;2023-02-03T04:21:37;10.95;;;4.20;;
21675;SDS011;10999;51.332;9.458;2023-02-03T04:24:04;9.50;;;3.97;;
21675;SDS011;10999;51.332;9.458;2023-02-03T04:26:31;10.00;;;3.85;;
21675;SDS011;10999;51.332;9.458;2023-02-03T04:28:57;10.05;;;4.20;;
21675;SDS011;10999;51.332;9.458;2023-02-03T04:31:24;9.18;;;3.88;;
21675;SDS011;10999;51.332;9.458;2023-02-03T04:33:51;10.65;;;3.95;;
21675;SDS011;10999;51.332;9.458;2023-02-03T04:36:17;8.25;;;3.40;;
21675;SDS011;10999;51.332;9.458;2023-02-03T04:38:44;9.85;;;3.50;;
21675;SDS011;10999;51.332;9.458;2023-02-03T04:41:11;9.88;;;4.15;;
21675;SDS011;10999;51.332;9.458;2023-02-03T04:43:37;7.50;;;3.30;;
21675;SDS011;10999;51.332;9.458;2023-02-03T04:46:04;9.55;;;4.28;;
21675;SDS011;10999;51.332;9.458;2023-02-03T04:48:31;8.90;;;3.63;;
21675;SDS011;10999;51.332;9.458;2023-02-03T04:51:01;9.60;;;3.47;;
21675;SDS011;10999;51.332;9.458;2023-02-03T04:53:29;8.45;;;3.42;;
21675;SDS011;10999;51.332;9.458;2023-02-03T04:55:56;8.93;;;3.65;;
21675;SDS011;10999;51.332;9.458;2023-02-03T04:58:22;7.00;;;2.95;;
21675;SDS011;10999;51.332;9.458;2023-02-03T05:00:49;8.15;;;3.55;;
21675;SDS011;10999;51.332;9.458;2023-02-03T05:03:16;8.75;;;3.45;;
21675;SDS011;10999;51.332;9.458;2023-02-03T05:05:43;8.27;;;3.83;;
21675;SDS011;10999;51.332;9.458;2023-02-03T05:08:10;8.07;;;3.38;;
21675;SDS011;10999;51.332;9.458;2023-02-03T05:10:37;7.10;;;3.33;;
21675;SDS011;10999;51.332;9.458;2023-02-03T05:13:03;8.02;;;3.72;;
21675;SDS011;10999;51.332;9.458;2023-02-03T05:15:30;7.07;;;3.03;;
21675;SDS011;10999;51.332;9.458;2023-02-03T05:17:57;8.27;;;3.78;;
21675;SDS011;10999;51.332;9.458;2023-02-03T05:20:23;7.93;;;3.53;;
21675;SDS011;10999;51.332;9.458;2023-02-03T05:22:51;7.38;;;2.58;;
21675;SDS011;10999;51.332;9.458;2023-02-03T05:25:17;9.38;;;2.97;;
21675;SDS011;10999;51.332;9.458;2023-02-03T05:27:44;6.65;;;2.83;;
21675;SDS011;10999;51.332;9.458;2023-02-03T05:30:11;9.23;;;3.03;;
21675;SDS011;10999;51.332;9.458;2023-02-03T05:32:38;6.53;;;2.83;;
21675;SDS011;10999;51.332;9.458;2023-02-03T05:35:04;7.13;;;3.00;;
21675;SDS011;10999;51.332;9.458;2023-02-03T05:37:31;7.57;;;2.75;;
21675;SDS011;10999;51.332;9.458;2023-02-03T05:39:58;7.70;;;2.58;;
21675;SDS011;10999;51.332;9.458;2023-02-03T05:42:48;6.63;;;2.40;;
21675;SDS011;10999;51.332;9.458;2023-02-03T05:45:15;7.82;;;2.53;;
21675;SDS011;10999;51.332;9.458;2023-02-03T05:47:42;7.03;;;2.90;;
21675;SDS011;10999;51.332;9.458;2023-02-03T05:50:09;7.40;;;3.25;;
21675;SDS011;10999;51.332;9.458;2023-02-03T05:52:36;6.53;;;2.63;;
21675;SDS011;10999;51.332;9.458;2023-02-03T05:55:03;6.85;;;2.70;;
21675;SDS011;10999;51.332;9.458;2023-02-03T05:57:30;7.60;;;2.53;;
21675;SDS011;10999;51.332;9.458;2023-02-03T05:59:57;6.78;;;2.63;;
21675;SDS011;10999;51.332;9.458;2023-02-03T06:02:27;8.82;;;3.40;;
21675;SDS011;10999;51.332;9.458;2023-02-03T06:04:54;6.88;;;3.03;;
21675;SDS011;10999;51.332;9.458;2023-02-03T06:07:21;8.85;;;4.22;;
21675;SDS011;10999;51.332;9.458;2023-02-03T06:09:47;6.18;;;3.20;;
21675;SDS011;10999;51.332;9.458;2023-02-03T06:12:15;8.27;;;3.47;;
21675;SDS011;10999;51.332;9.458;2023-02-03T06:14:42;12.15;;;3.60;;
21675;SDS011;10999;51.332;9.458;2023-02-03T06:17:08;7.22;;;2.97;;
21675;SDS011;10999;51.332;9.458;2023-02-03T06:19:35;7.30;;;3.15;;
21675;SDS011;10999;51.332;9.458;2023-02-03T06:22:02;9.75;;;3.42;;
21675;SDS011;10999;51.332;9.458;2023-02-03T06:24:29;8.80;;;3.25;;
21675;SDS011;10999;51.332;9.458;2023-02-03T06:26:55;7.65;;;3.97;;
21675;SDS011;10999;51.332;9.458;2023-02-03T06:29:22;8.80;;;3.45;;
21675;SDS011;10999;51.332;9.458;2023-02-03T06:31:49;7.88;;;3.15;;
21675;SDS011;10999;51.332;9.458;2023-02-03T06:34:16;7.85;;;3.13;;
21675;SDS011;10999;51.332;9.458;2023-02-03T06:36:43;8.68;;;3.30;;
21675;SDS011;10999;51.332;9.458;2023-02-03T06:39:09;9.45;;;2.90;;
21675;SDS011;10999;51.332;9.458;2023-02-03T06:41:36;6.97;;;2.80;;
21675;SDS011;10999;51.332;9.458;2023-02-03T06:44:03;7.57;;;2.92;;
21675;SDS011;10999;51.332;9.458;2023-02-03T06:46:29;4.65;;;2.20;;
21675;SDS011;10999;51.332;9.458;2023-02-03T06:48:56;6.40;;;2.67;;
21675;SDS011;10999;51.332;9.458;2023-02-03T06:51:23;8.95;;;2.85;;
21675;SDS011;10999;51.332;9.458;2023-02-03T06:53:50;6.55;;;2.63;;
21675;SDS011;10999;51.332;9.458;2023-02-03T06:56:17;6.15;;;2.40;;
21675;SDS011;10999;51.332;9.458;2023-02-03T06:58:44;8.20;;;2.80;;
21675;SDS011;10999;51.332;9.458;2023-02-03T07:01:10;9.25;;;2.88;;
21675;SDS011;10999;51.332;9.458;2023-02-03T07:03:37;7.22;;;2.72;;
21675;SDS011;10999;51.332;9.458;2023-02-03T07:06:07;7.25;;;2.60;;
21675;SDS011;10999;51.332;9.458;2023-02-03T07:08:34;8.00;;;2.78;;
21675;SDS011;10999;51.332;9.458;2023-02-03T07:11:00;7.10;;;2.97;;
21675;SDS011;10999;51.332;9.458;2023-02-03T07:13:27;6.32;;;2.70;;
21675;SDS011;10999;51.332;9.458;2023-02-03T07:15:54;7.65;;;2.60;;
21675;SDS011;10999;51.332;9.458;2023-02-03T07:18:21;5.70;;;2.47;;
21675;SDS011;10999;51.332;9.458;2023-02-03T07:21:11;6.05;;;2.58;;
21675;SDS011;10999;51.332;9.458;2023-02-03T07:23:39;6.88;;;2.88;;
21675;SDS011;10999;51.332;9.458;2023-02-03T07:26:06;6.93;;;2.70;;
21675;SDS011;10999;51.332;9.458;2023-02-03T07:28:34;12.77;;;3.13;;
21675;SDS011;10999;51.332;9.458;2023-02-03T07:31:01;9.68;;;2.85;;
21675;SDS011;10999;51.332;9.458;2023-02-03T07:33:31;6.03;;;2.50;;
21675;SDS011;10999;51.332;9.458;2023-02-03T07:35:58;6.80;;;3.40;;
21675;SDS011;10999;51.332;9.458;2023-02-03T07:38:26;9.82;;;3.45;;
21675;SDS011;10999;51.332;9.458;2023-02-03T07:40:53;8.27;;;3.13;;
21675;SDS011;10999;51.332;9.458;2023-02-03T07:43:20;7.85;;;3.15;;
21675;SDS011;10999;51.332;9.458;2023-02-03T07:45:47;7.82;;;3.05;;
21675;SDS011;10999;51.332;9.458;2023-02-03T07:48:14;7.75;;;3.00;;
21675;SDS011;10999;51.332;9.458;2023-02-03T07:50:41;7.13;;;3.05;;
21675;SDS011;10999;51.332;9.458;2023-02-03T07:53:08;7.47;;;3.08;;
21675;SDS011;10999;51.332;9.458;2023-02-03T07:55:36;5.10;;;2.35;;
21675;SDS011;10999;51.332;9.458;2023-02-03T07:58:04;8.30;;;2.75;;
21675;SDS011;10999;51.332;9.458;2023-02-03T08:00:32;6.50;;;2.72;;
21675;SDS011;10999;51.332;9.458;2023-02-03T08:03:02;5.32;;;2.58;;
21675;SDS011;10999;51.332;9.458;2023-02-03T08:05:29;5.53;;;2.42;;
21675;SDS011;10999;51.332;9.458;2023-02-03T08:07:56;5.65;;;2.85;;
21675;SDS011;10999;51.332;9.458;2023-02-03T08:10:24;6.53;;;2.25;;
21675;SDS011;10999;51.332;9.458;2023-02-03T08:12:52;5.57;;;2.10;;
21675;SDS011;10999;51.332;9.458;2023-02-03T08:15:19;5.38;;;1.98;;
21675;SDS011;10999;51.332;9.458;2023-02-03T08:17:50;7.10;;;2.33;;
21675;SDS011;10999;51.332;9.458;2023-02-03T08:20:17;7.22;;;2.50;;
21675;SDS011;10999;51.332;9.458;2023-02-03T08:22:44;6.78;;;2.35;;
21675;SDS011;10999;51.332;9.458;2023-02-03T08:25:11;5.65;;;1.70;;
21675;SDS011;10999;51.332;9.458;2023-02-03T08:27:38;3.70;;;1.40;;
21675;SDS011;10999;51.332;9.458;2023-02-03T08:30:06;3.08;;;1.67;;
21675;SDS011;10999;51.332;9.458;2023-02-03T08:32:35;4.15;;;1.90;;
21675;SDS011;10999;51.332;9.458;2023-02-03T08:35:02;3.85;;;1.60;;
21675;SDS011;10999;51.332;9.458;2023-02-03T08:37:29;3.55;;;1.50;;
21675;SDS011;10999;51.332;9.458;2023-02-03T08:39:57;4.90;;;1.58;;
21675;SDS011;10999;51.332;9.458;2023-02-03T08:42:25;3.97;;;1.50;;
21675;SDS011;10999;51.332;9.458;2023-02-03T08:44:51;4.47;;;1.42;;
21675;SDS011;10999;51.332;9.458;2023-02-03T08:47:18;4.22;;;1.70;;
21675;SDS011;10999;51.332;9.458;2023-02-03T08:49:45;3.85;;;1.48;;
21675;SDS011;10999;51.332;9.458;2023-02-03T08:52:12;3.67;;;1.40;;
21675;SDS011;10999;51.332;9.458;2023-02-03T08:54:39;4.53;;;1.88;;
21675;SDS011;10999;51.332;9.458;2023-02-03T08:57:06;3.67;;;1.50;;
21675;SDS011;10999;51.332;9.458;2023-02-03T08:59:34;3.35;;;1.27;;
21675;SDS011;10999;51.332;9.458;2023-02-03T09:02:03;3.05;;;1.20;;
21675;SDS011;10999;51.332;9.458;2023-02-03T09:04:30;3.63;;;1.10;;
21675;SDS011;10999;51.332;9.458;2023-02-03T09:06:58;2.45;;;1.10;;
21675;SDS011;10999;51.332;9.458;2023-02-03T09:09:27;3.28;;;1.33;;
21675;SDS011;10999;51.332;9.458;2023-02-03T09:11:54;3.20;;;1.35;;
21675;SDS011;10999;51.332;9.458;2023-02-03T09:14:27;4.22;;;1.20;;
21675;SDS011;10999;51.332;9.458;2023-02-03T09:16:55;2.60;;;1.25;;
21675;SDS011;10999;51.332;9.458;2023-02-03T09:19:22;4.18;;;1.40;;
21675;SDS011;10999;51.332;9.458;2023-02-03T09:21:49;3.75;;;1.30;;
21675;SDS011;10999;51.332;9.458;2023-02-03T09:24:16;3.75;;;1.40;;
21675;SDS011;10999;51.332;9.458;2023-02-03T09:26:43;3.63;;;1.30;;
21675;SDS011;10999;51.332;9.458;2023-02-03T09:29:10;4.22;;;1.10;;
21675;SDS011;10999;51.332;9.458;2023-02-03T09:31:36;3.00;;;1.27;;
21675;SDS011;10999;51.332;9.458;2023-02-03T09:34:03;3.83;;;1.20;;
21675;SDS011;10999;51.332;9.458;2023-02-03T09:36:30;3.80;;;1.17;;
21675;SDS011;10999;51.332;9.458;2023-02-03T09:38:57;2.40;;;1.17;;
21675;SDS011;10999;51.332;9.458;2023-02-03T09:44:21;3.58;;;1.65;;
21675;SDS011;10999;51.332;9.458;2023-02-03T09:47:17;3.13;;;1.17;;
21675;SDS011;10999;51.332;9.458;2023-02-03T09:49:54;4.30;;;1.80;;
21675;SDS011;10999;51.332;9.458;2023-02-03T09:57:48;3.70;;;1.40;;
21675;SDS011;10999;51.332;9.458;2023-02-03T10:00:23;3.67;;;1.55;;
21675;SDS011;10999;51.332;9.458;2023-02-03T10:02:55;3.00;;;1.45;;
21675;SDS011;10999;51.332;9.458;2023-02-03T10:05:45;3.03;;;1.23;;
21675;SDS011;10999;51.332;9.458;2023-02-03T10:11:18;3.90;;;1.60;;
21675;SDS011;10999;51.332;9.458;2023-02-03T10:19:27;3.22;;;1.40;;
21675;SDS011;10999;51.332;9.458;2023-02-03T10:22:18;3.63;;;1.33;;
21675;SDS011;10999;51.332;9.458;2023-02-03T10:24:53;5.07;;;1.70;;
21675;SDS011;10999;51.332;9.458;2023-02-03T10:27:21;3.67;;;1.45;;
21675;SDS011;10999;51.332;9.458;2023-02-03T10:30:36;5.30;;;1.80;;
21675;SDS011;10999;51.332;9.458;2023-02-03T10:33:30;5.05;;;1.92;;
21675;SDS011;10999;51.332;9.458;2023-02-03T10:35:52;4.47;;;1.60;;
21675;SDS011;10999;51.332;9.458;2023-02-03T10:41:03;4.43;;;1.83;;
21675;SDS011;10999;51.332;9.458;2023-02-03T10:43:30;5.78;;;2.25;;
21675;SDS011;10999;51.332;9.458;2023-02-03T10:46:13;4.22;;;1.88;;
21675;SDS011;10999;51.332;9.458;2023-02-03T10:48:41;4.60;;;2.05;;
21675;SDS011;10999;51.332;9.458;2023-02-03T10:51:23;4.32;;;1.90;;
21675;SDS011;10999;51.332;9.458;2023-02-03T10:53:53;5.43;;;1.80;;
21675;SDS011;10999;51.332;9.458;2023-02-03T10:56:29;4.35;;;1.70;;
21675;SDS011;10999;51.332;9.458;2023-02-03T10:59:04;3.97;;;1.48;;
21675;SDS011;10999;51.332;9.458;2023-02-03T11:04:06;3.75;;;1.40;;
21675;SDS011;10999;51.332;9.458;2023-02-03T11:06:59;4.65;;;1.73;;
21675;SDS011;10999;51.332;9.458;2023-02-03T11:09:41;4.28;;;1.80;;
21675;SDS011;10999;51.332;9.458;2023-02-03T11:14:46;4.20;;;1.75;;
21675;SDS011;10999;51.332;9.458;2023-02-03T11:17:18;4.28;;;1.55;;
21675;SDS011;10999;51.332;9.458;2023-02-03T11:19:50;7.70;;;2.25;;
21675;SDS011;10999;51.332;9.458;2023-02-03T11:22:30;4.95;;;1.70;;
21675;SDS011;10999;51.332;9.458;2023-02-03T11:25:19;6.97;;;2.22;;
21675;SDS011;10999;51.332;9.458;2023-02-03T11:28:03;5.85;;;2.15;;
21675;SDS011;10999;51.332;9.458;2023-02-03T11:30:33;6.95;;;2.30;;
21675;SDS011;10999;51.332;9.458;2023-02-03T11:33:01;6.45;;;2.58;;
21675;SDS011;10999;51.332;9.458;2023-02-03T11:35:50;7.68;;;2.35;;
21675;SDS011;10999;51.332;9.458;2023-02-03T11:38:29;8.32;;;2.58;;
21675;SDS011;10999;51.332;9.458;2023-02-03T11:41:19;7.32;;;2.55;;
21675;SDS011;10999;51.332;9.458;2023-02-03T11:44:09;6.47;;;2.55;;
21675;SDS011;10999;51.332;9.458;2023-02-03T11:46:41;5.65;;;2.88;;
21675;SDS011;10999;51.332;9.458;2023-02-03T12:03:33;6.72;;;2.72;;
21675;SDS011;10999;51.332;9.458;2023-02-03T12:11:59;7.60;;;2.97;;
21675;SDS011;10999;51.332;9.458;2023-02-03T12:28:49;5.20;;;2.20;;
21675;SDS011;10999;51.332;9.458;2023-02-03T12:31:24;6.82;;;2.22;;
21675;SDS011;10999;51.332;9.458;2023-02-03T12:34:13;5.05;;;2.20;;
21675;SDS011;10999;51.332;9.458;2023-02-03T12:37:04;4.95;;;2.20;;
21675;SDS011;10999;51.332;9.458;2023-02-03T12:39:52;6.88;;;1.98;;
21675;SDS011;10999;51.332;9.458;2023-02-03T12:42:25;6.90;;;2.13;;
21675;SDS011;10999;51.332;9.458;2023-02-03T12:47:43;4.63;;;1.98;;
21675;SDS011;10999;51.332;9.458;2023-02-03T12:52:59;4.80;;;1.85;;
21675;SDS011;10999;51.332;9.458;2023-02-03T12:55:46;6.45;;;2.08;;
21675;SDS011;10999;51.332;9.458;2023-02-03T12:58:30;5.32;;;1.92;;
21675;SDS011;10999;51.332;9.458;2023-02-03T13:01:04;6.07;;;1.80;;
21675;SDS011;10999;51.332;9.458;2023-02-03T13:12:11;4.07;;;1.50;;
21675;SDS011;10999;51.332;9.458;2023-02-03T13:14:47;3.47;;;1.38;;
21675;SDS011;10999;51.332;9.458;2023-02-03T13:17:19;3.88;;;1.20;;
21675;SDS011;10999;51.332;9.458;2023-02-03T13:19:52;3.28;;;0.98;;
21675;SDS011;10999;51.332;9.458;2023-02-03T13:22:22;3.28;;;1.15;;
21675;SDS011;10999;51.332;9.458;2023-02-03T13:24:52;3.95;;;1.15;;
21675;SDS011;10999;51.332;9.458;2023-02-03T13:30:47;2.88;;;1.02;;
21675;SDS011;10999;51.332;9.458;2023-02-03T13:41:21;8.13;;;1.77;;
21675;SDS011;10999;51.332;9.458;2023-02-03T13:44:11;11.13;;;1.73;;
21675;SDS011;10999;51.332;9.458;2023-02-03T13:46:42;7.70;;;1.63;;
21675;SDS011;10999;51.332;9.458;2023-02-03T13:49:22;12.05;;;2.85;;
21675;SDS011;10999;51.332;9.458;2023-02-03T13:51:55;15.50;;;2.85;;
21675;SDS011;10999;51.332;9.458;2023-02-03T13:56:59;17.60;;;2.33;;
21675;SDS011;10999;51.332;9.458;2023-02-03T14:12:53;9.25;;;1.90;;
21675;SDS011;10999;51.332;9.458;2023-02-03T14:20:52;20.85;;;2.83;;
21675;SDS011;10999;51.332;9.458;2023-02-03T14:23:28;14.23;;;2.45;;
21675;SDS011;10999;51.332;9.458;2023-02-03T14:26:03;10.98;;;1.83;;
21675;SDS011;10999;51.332;9.458;2023-02-03T14:28:41;9.85;;;2.60;;
21675;SDS011;10999;51.332;9.458;2023-02-03T14:31:15;13.40;;;2.28;;
21675;SDS011;10999;51.332;9.458;2023-02-03T14:36:37;18.38;;;2.70;;
21675;SDS011;10999;51.332;9.458;2023-02-03T14:59:53;10.40;;;1.73;;
21675;SDS011;10999;51.332;9.458;2023-02-03T15:03:13;11.02;;;2.47;;
21675;SDS011;10999;51.332;9.458;2023-02-03T15:05:59;13.68;;;2.30;;
21675;SDS011;10999;51.332;9.458;2023-02-03T15:08:35;9.38;;;1.83;;
21675;SDS011;10999;51.332;9.458;2023-02-03T15:11:24;8.80;;;1.83;;
21675;SDS011;10999;51.332;9.458;2023-02-03T15:13:54;13.60;;;2.22;;
21675;SDS011;10999;51.332;9.458;2023-02-03T15:16:30;9.98;;;2.10;;
21675;SDS011;10999;51.332;9.458;2023-02-03T15:18:58;17.90;;;2.33;;
21675;SDS011;10999;51.332;9.458;2023-02-03T15:21:39;9.05;;;1.88;;
21675;SDS011;10999;51.332;9.458;2023-02-03T15:24:32;14.43;;;1.70;;
21675;SDS011;10999;51.332;9.458;2023-02-03T15:27:02;11.68;;;1.75;;
21675;SDS011;10999;51.332;9.458;2023-02-03T15:29:32;20.88;;;2.67;;
21675;SDS011;10999;51.332;9.458;2023-02-03T15:32:20;10.77;;;1.73;;
21675;SDS011;10999;51.332;9.458;2023-02-03T15:35:19;14.07;;;1.73;;
21675;SDS011;10999;51.332;9.458;2023-02-03T15:38:07;9.98;;;2.08;;
21675;SDS011;10999;51.332;9.458;2023-02-03T15:40:53;10.55;;;1.50;;
21675;SDS011;10999;51.332;9.458;2023-02-03T15:43:38;15.18;;;3.15;;
21675;SDS011;10999;51.332;9.458;2023-02-03T15:48:51;9.15;;;1.45;;
21675;SDS011;10999;51.332;9.458;2023-02-03T15:52:00;13.88;;;2.42;;
21675;SDS011;10999;51.332;9.458;2023-02-03T15:54:43;17.25;;;3.38;;
21675;SDS011;10999;51.332;9.458;2023-02-03T15:57:29;8.68;;;2.15;;
21675;SDS011;10999;51.332;9.458;2023-02-03T16:01:04;7.80;;;1.38;;
21675;SDS011;10999;51.332;9.458;2023-02-03T16:06:18;10.07;;;2.38;;
21675;SDS011;10999;51.332;9.458;2023-02-03T16:09:32;8.98;;;1.65;;
21675;SDS011;10999;51.332;9.458;2023-02-03T16:12:20;6.97;;;1.42;;
21675;SDS011;10999;51.332;9.458;2023-02-03T16:15:19;11.02;;;1.70;;
21675;SDS011;10999;51.332;9.458;2023-02-03T16:17:55;8.98;;;1.95;;
21675;SDS011;10999;51.332;9.458;2023-02-03T16:20:24;16.60;;;2.42;;
21675;SDS011;10999;51.332;9.458;2023-02-03T16:23:18;10.20;;;1.95;;
21675;SDS011;10999;51.332;9.458;2023-02-03T16:28:30;14.85;;;2.85;;
21675;SDS011;10999;51.332;9.458;2023-02-03T16:31:27;11.90;;;1.85;;
21675;SDS011;10999;51.332;9.458;2023-02-03T16:34:17;11.65;;;1.80;;
21675;SDS011;10999;51.332;9.458;2023-02-03T16:37:11;11.20;;;2.67;;
21675;SDS011;10999;51.332;9.458;2023-02-03T16:40:23;23.90;;;2.50;;
21675;SDS011;10999;51.332;9.458;2023-02-03T16:43:34;12.00;;;2.03;;
21675;SDS011;10999;51.332;9.458;2023-02-03T16:47:14;14.98;;;2.35;;
21675;SDS011;10999;51.332;9.458;2023-02-03T16:51:15;9.68;;;2.30;;
21675;SDS011;10999;51.332;9.458;2023-02-03T16:54:14;10.13;;;2.08;;
21675;SDS011;10999;51.332;9.458;2023-02-03T17:00:10;7.90;;;2.10;;
21675;SDS011;10999;51.332;9.458;2023-02-03T17:02:38;10.93;;;2.28;;
21675;SDS011;10999;51.332;9.458;2023-02-03T17:05:05;14.13;;;1.90;;
21675;SDS011;10999;51.332;9.458;2023-02-03T17:07:48;6.45;;;1.88;;
21675;SDS011;10999;51.332;9.458;2023-02-03T17:10:21;11.32;;;2.30;;
21675;SDS011;10999;51.332;9.458;2023-02-03T17:12:58;12.98;;;2.67;;
21675;SDS011;10999;51.332;9.458;2023-02-03T17:15:51;9.02;;;1.77;;
21675;SDS011;10999;51.332;9.458;2023-02-03T17:18:18;16.98;;;3.30;;
21675;SDS011;10999;51.332;9.458;2023-02-03T17:20:46;13.30;;;2.55;;
21675;SDS011;10999;51.332;9.458;2023-02-03T17:23:13;15.68;;;2.42;;
21675;SDS011;10999;51.332;9.458;2023-02-03T17:25:44;12.13;;;2.00;;
21675;SDS011;10999;51.332;9.458;2023-02-03T17:28:13;15.95;;;2.58;;
21675;SDS011;10999;51.332;9.458;2023-02-03T17:30:40;15.65;;;3.13;;
21675;SDS011;10999;51.332;9.458;2023-02-03T17:33:07;16.25;;;3.35;;
21675;SDS011;10999;51.332;9.458;2023-02-03T17:35:41;15.88;;;2.85;;
21675;SDS011;10999;51.332;9.458;2023-02-03T17:38:10;12.05;;;2.28;;
21675;SDS011;10999;51.332;9.458;2023-02-03T17:40:38;14.52;;;2.13;;
21675;SDS011;10999;51.332;9.458;2023-02-03T17:43:23;14.82;;;2.15;;
21675;SDS011;10999;51.332;9.458;2023-02-03T17:46:08;11.75;;;1.92;;
21675;SDS011;10999;51.332;9.458;2023-02-03T17:48:54;15.80;;;2.65;;
21675;SDS011;10999;51.332;9.458;2023-02-03T17:51:41;14.95;;;1.85;;
21675;SDS011;10999;51.332;9.458;2023-02-03T17:54:25;12.45;;;2.03;;
21675;SDS011;10999;51.332;9.458;2023-02-03T17:56:53;19.23;;;2.47;;
21675;SDS011;10999;51.332;9.458;2023-02-03T17:59:19;11.10;;;1.80;;